Weather at Darnick Airport

Public forecast

Using degrees Celsius for public forecast. Weather courtesy of forecast.io.

Closest aviation weather report (METAR) to Darnick Airport

Closest report is Mildura Airport, 110.2 nm (204.1 km) SW. Retrieved 2021/06/20 09:00 UTC (7 minutes ago):

YMIA 200900Z AUTO 16003KT 9999 // NCD 08/05 Q1025

Closest aviation forecast (TAF) to Darnick Airport

Forecast is more than 12 hours old.

Closest forecast is Wagga Wagga City Airport, 236.8 nm (438.6 km) SE. Retrieved 2018/05/25 18:03 UTC (3 years ago):

TAF YSWG 251649Z 2518/2608 07008KT CAVOK